Time;durP1;ratioP1;P1;durP2;ratioP2;P2;SDS_P1;SDS_P2;PMS_P1;PMS_P2;Temp;Humidity;BMP_temperature;BMP_pressure;BME280_temperature;BME280_humidity;BME280_pressure;Samples;Min_cycle;Max_cycle;Signal;HPM_P1;HPM_P2
2023/10/14 00:01:38;;;;;;;12.15;5.47;;;;;;;16.22;82.02;99527.13;5032213;28;20662;-58
2023/10/14 00:04:09;;;;;;;12.30;6.88;;;;;;;16.31;81.95;99542.31;5028138;28;20582;-58
2023/10/14 00:06:38;;;;;;;12.23;5.97;;;;;;;16.23;81.78;99521.00;5032140;28;20286;-60
2023/10/14 00:09:12;;;;;;;11.30;6.38;;;;;;;16.32;81.72;99538.81;5031786;28;20197;-58
2023/10/14 00:11:43;;;;;;;10.13;5.78;;;;;;;16.35;81.48;99534.31;5032288;28;20195;-59
2023/10/14 00:14:17;;;;;;;8.73;5.85;;;;;;;16.21;81.48;99505.47;5034872;28;20213;-62
2023/10/14 00:16:52;;;;;;;8.80;6.15;;;;;;;16.30;81.32;99531.06;5016522;28;20230;-58
2023/10/14 00:19:22;;;;;;;9.07;6.32;;;;;;;16.31;81.23;99511.97;5031386;28;20206;-56
2023/10/14 00:21:53;;;;;;;7.63;5.90;;;;;;;16.24;81.21;99505.34;5032309;28;20569;-57
2023/10/14 00:24:26;;;;;;;12.77;5.93;;;;;;;16.36;81.08;99525.59;5028436;28;20211;-63
2023/10/14 00:26:55;;;;;;;10.38;5.85;;;;;;;16.35;81.01;99512.69;5029674;28;21860;-63
2023/10/14 00:29:24;;;;;;;13.20;6.72;;;;;;;16.38;80.58;99508.16;5028315;28;20299;-63
2023/10/14 00:31:54;;;;;;;10.00;6.50;;;;;;;16.37;80.49;99505.66;5033431;28;20677;-64
2023/10/14 00:34:22;;;;;;;11.73;6.68;;;;;;;16.36;80.49;99504.81;5033613;28;20202;-63
2023/10/14 00:36:52;;;;;;;16.92;6.47;;;;;;;16.36;80.56;99510.00;5029480;28;20249;-63
2023/10/14 00:39:26;;;;;;;10.80;5.85;;;;;;;16.37;80.52;99506.50;5033041;28;20703;-62
2023/10/14 00:41:56;;;;;;;12.98;6.13;;;;;;;16.37;79.93;99498.69;5032752;28;20212;-62
2023/10/14 00:44:25;;;;;;;9.85;5.55;;;;;;;16.38;79.81;99500.38;5028710;28;20218;-65
2023/10/14 00:46:56;;;;;;;12.35;6.18;;;;;;;16.40;79.58;99495.97;5031087;28;20293;-61
2023/10/14 00:49:30;;;;;;;8.20;6.13;;;;;;;16.41;79.42;99495.03;5032542;28;20199;-63
2023/10/14 00:52:01;;;;;;;10.35;6.45;;;;;;;16.44;79.39;99491.47;5027599;28;20340;-63
2023/10/14 00:54:53;;;;;;;10.52;5.75;;;;;;;16.43;79.36;99490.63;5029050;28;20278;-62
2023/10/14 00:57:21;;;;;;;10.85;5.72;;;;;;;16.43;79.00;99480.22;5031037;28;20258;-63
2023/10/14 00:59:50;;;;;;;9.68;5.95;;;;;;;16.45;78.68;99485.34;5033038;28;20257;-62
2023/10/14 01:02:29;;;;;;;11.55;5.90;;;;;;;16.47;78.66;99485.28;5027904;28;20209;-62
2023/10/14 01:05:06;;;;;;;13.02;6.07;;;;;;;16.47;78.41;99474.91;5029807;28;20202;-62
2023/10/14 01:07:35;;;;;;;12.85;6.20;;;;;;;16.48;78.27;99476.56;5027738;28;20597;-64
2023/10/14 01:10:05;;;;;;;12.10;6.20;;;;;;;16.48;78.33;99479.16;5030072;28;20269;-63
2023/10/14 01:12:40;;;;;;;8.63;5.95;;;;;;;16.48;78.01;99471.38;5028445;28;20203;-62
2023/10/14 01:15:17;;;;;;;10.25;6.13;;;;;;;16.46;77.97;99467.97;5030935;28;20267;-62
2023/10/14 01:17:46;;;;;;;8.88;6.05;;;;;;;16.48;77.78;99463.56;5031257;28;20212;-62
2023/10/14 01:20:26;;;;;;;9.15;6.45;;;;;;;16.48;77.53;99456.59;5030542;28;20198;-62
2023/10/14 01:22:57;;;;;;;9.10;5.78;;;;;;;16.49;77.49;99452.25;5032204;28;20202;-62
2023/10/14 01:25:29;;;;;;;12.15;5.50;;;;;;;16.49;77.14;99447.03;5028275;28;20642;-61
2023/10/14 01:27:59;;;;;;;10.75;6.13;;;;;;;16.51;77.06;99447.84;5031991;28;20198;-63
2023/10/14 01:30:32;;;;;;;10.40;5.43;;;;;;;16.52;76.69;99442.53;5030996;28;20222;-64
2023/10/14 01:33:12;;;;;;;8.82;5.65;;;;;;;16.53;76.46;99438.19;5032028;28;20218;-57
2023/10/14 01:35:43;;;;;;;13.20;6.47;;;;;;;16.53;76.29;99430.38;5030731;28;20210;-59
2023/10/14 01:38:13;;;;;;;9.90;6.47;;;;;;;16.55;76.04;99433.78;5031154;28;20256;-58
2023/10/14 01:40:48;;;;;;;8.32;5.40;;;;;;;16.54;75.78;99435.53;5029229;28;20211;-59
2023/10/14 01:43:17;;;;;;;12.50;6.57;;;;;;;16.55;75.69;99429.41;5025169;28;20273;-59
2023/10/14 01:45:50;;;;;;;12.73;6.00;;;;;;;16.56;75.24;99432.84;5030478;28;20845;-58
2023/10/14 01:48:21;;;;;;;9.68;6.00;;;;;;;16.55;75.20;99424.22;5031231;28;20202;-61
2023/10/14 01:50:54;;;;;;;8.88;5.47;;;;;;;16.56;74.98;99420.69;5029726;28;20215;-57
2023/10/14 01:53:27;;;;;;;11.20;5.90;;;;;;;16.55;74.96;99415.56;5030974;28;20203;-60
2023/10/14 01:55:57;;;;;;;12.05;6.07;;;;;;;16.55;74.71;99408.59;5030880;28;20627;-57
2023/10/14 01:58:30;;;;;;;8.82;6.03;;;;;;;16.54;74.55;99406.94;5024495;28;20230;-58
2023/10/14 02:01:04;;;;;;;7.55;5.43;;;;;;;16.54;74.65;99408.69;5029062;28;20229;-57
2023/10/14 02:03:35;;;;;;;10.27;5.30;;;;;;;16.55;74.23;99399.97;5029873;28;20670;-57
2023/10/14 02:06:10;;;;;;;9.00;6.10;;;;;;;16.50;74.22;99388.94;5032482;28;20615;-57
2023/10/14 02:08:40;;;;;;;9.80;5.65;;;;;;;16.52;74.07;99385.34;5031708;28;20244;-58
2023/10/14 02:11:09;;;;;;;8.88;5.35;;;;;;;16.53;74.07;99388.78;5030517;28;20372;-58
2023/10/14 02:13:37;;;;;;;10.38;5.72;;;;;;;16.51;74.03;99388.84;5030791;28;20662;-58
2023/10/14 02:16:08;;;;;;;9.07;5.43;;;;;;;16.51;73.72;99382.81;5031131;28;20230;-58
2023/10/14 02:18:37;;;;;;;12.82;5.30;;;;;;;16.53;73.60;99380.97;5034146;28;20279;-57
2023/10/14 02:21:11;;;;;;;15.27;5.82;;;;;;;16.53;73.43;99380.97;5030463;28;20285;-59
2023/10/14 02:23:47;;;;;;;9.57;5.55;;;;;;;16.51;73.41;99372.41;5023281;28;20213;-59
2023/10/14 02:26:22;;;;;;;11.60;5.63;;;;;;;16.50;73.73;99373.34;5032737;28;20225;-57
2023/10/14 02:28:52;;;;;;;7.10;5.25;;;;;;;16.50;73.31;99363.78;5029685;28;20209;-59
2023/10/14 02:31:29;;;;;;;13.60;5.15;;;;;;;16.50;73.06;99360.34;5031323;28;20232;-58
2023/10/14 02:34:03;;;;;;;6.47;5.28;;;;;;;16.50;72.93;99360.34;5027802;28;20846;-58
2023/10/14 02:36:35;;;;;;;12.45;5.25;;;;;;;16.46;72.98;99358.75;5032636;28;20297;-58
2023/10/14 02:39:12;;;;;;;10.55;5.00;;;;;;;16.50;72.61;99360.34;5025189;28;20214;-59
2023/10/14 02:41:43;;;;;;;10.23;5.50;;;;;;;16.50;72.42;99357.72;5034549;28;20636;-60
2023/10/14 02:44:27;;;;;;;7.18;5.25;;;;;;;16.48;72.43;99354.34;5024598;28;20624;-64
2023/10/14 02:47:01;;;;;;;10.05;5.85;;;;;;;16.48;72.48;99352.59;5030436;28;20306;-59
2023/10/14 02:49:35;;;;;;;8.80;5.28;;;;;;;16.48;72.40;99354.34;5029461;28;20217;-59
2023/10/14 02:52:08;;;;;;;9.85;5.25;;;;;;;16.48;72.32;99351.75;5025591;28;20685;-58
2023/10/14 02:54:42;;;;;;;10.48;5.38;;;;;;;16.45;72.36;99341.47;5033923;28;20208;-59
2023/10/14 02:57:13;;;;;;;9.52;5.30;;;;;;;16.41;72.39;99341.63;5024732;28;20763;-60
2023/10/14 02:59:46;;;;;;;12.15;5.32;;;;;;;16.40;72.56;99344.31;5025540;28;20209;-58
2023/10/14 03:02:18;;;;;;;9.00;5.15;;;;;;;16.38;72.56;99336.56;5028980;28;20290;-59
2023/10/14 03:05:08;;;;;;;9.45;5.03;;;;;;;16.37;72.47;99323.66;5028417;28;20317;-58
2023/10/14 03:07:45;;;;;;;7.60;4.88;;;;;;;16.35;72.42;99315.09;5027420;28;20202;-58
2023/10/14 03:10:19;;;;;;;9.55;5.18;;;;;;;16.36;72.28;99317.59;5030554;28;20206;-59
2023/10/14 03:12:49;;;;;;;10.88;5.43;;;;;;;16.34;71.94;99306.41;5032861;28;20556;-63
2023/10/14 03:15:22;;;;;;;8.82;5.32;;;;;;;16.35;72.08;99299.50;5027604;28;20226;-61
2023/10/14 03:17:55;;;;;;;9.10;5.47;;;;;;;16.34;72.13;99300.38;5026384;28;20245;-60
2023/10/14 03:20:39;;;;;;;10.68;5.10;;;;;;;16.31;72.31;99296.19;5026413;28;20237;-58
2023/10/14 03:23:12;;;;;;;9.07;5.22;;;;;;;16.29;72.17;99298.00;5031957;28;20198;-56
2023/10/14 03:25:42;;;;;;;10.52;5.45;;;;;;;16.28;72.33;99287.69;5029307;28;20206;-58
2023/10/14 03:28:14;;;;;;;8.48;5.25;;;;;;;16.25;72.44;99277.44;5029793;28;20207;-58
2023/10/14 03:30:47;;;;;;;9.80;4.97;;;;;;;16.28;72.40;99272.94;5030845;28;20211;-58
2023/10/14 03:33:19;;;;;;;9.00;4.38;;;;;;;16.27;72.21;99263.44;5029971;28;20219;-57
2023/10/14 03:35:54;;;;;;;9.93;5.50;;;;;;;16.26;72.10;99253.97;5027516;28;20217;-59
2023/10/14 03:38:39;;;;;;;10.82;5.00;;;;;;;16.27;72.05;99240.03;5017396;28;20318;-59
2023/10/14 03:41:17;;;;;;;10.52;5.10;;;;;;;16.28;71.81;99240.91;5025241;28;20198;-59
2023/10/14 03:43:50;;;;;;;8.30;5.32;;;;;;;16.29;71.86;99237.38;5025566;28;20539;-60
2023/10/14 03:46:23;;;;;;;10.45;5.22;;;;;;;16.29;71.97;99233.03;5028515;28;20202;-57
2023/10/14 03:48:54;;;;;;;9.52;5.32;;;;;;;16.29;71.60;99233.03;5030414;28;20677;-58
2023/10/14 03:51:25;;;;;;;9.27;5.18;;;;;;;16.28;71.84;99222.72;5029304;28;20202;-60
2023/10/14 03:53:54;;;;;;;13.68;5.63;;;;;;;16.26;71.85;99217.56;5029276;28;20203;-68
2023/10/14 03:56:27;;;;;;;7.30;5.13;;;;;;;16.26;72.10;99211.53;5028498;28;20226;-67
2023/10/14 03:58:57;;;;;;;12.32;5.78;;;;;;;16.26;72.17;99212.38;5030154;28;20301;-69
2023/10/14 04:01:33;;;;;;;9.82;5.13;;;;;;;16.25;72.11;99209.84;5029923;28;20206;-69
2023/10/14 04:04:14;;;;;;;7.93;5.60;;;;;;;16.23;72.02;99212.50;5025954;28;20198;-69
2023/10/14 04:06:51;;;;;;;8.50;5.38;;;;;;;16.23;72.15;99217.72;5031414;28;20202;-67
2023/10/14 04:09:24;;;;;;;15.05;6.43;;;;;;;16.21;72.16;99213.53;5034683;28;20198;-70
2023/10/14 04:11:59;;;;;;;11.02;5.88;;;;;;;16.21;71.90;99209.16;5034105;28;20214;-67
2023/10/14 04:14:28;;;;;;;7.50;5.22;;;;;;;16.20;72.12;99210.09;5028088;28;20233;-65
2023/10/14 04:17:10;;;;;;;11.90;5.63;;;;;;;16.19;72.13;99210.97;5033844;28;20206;-67
2023/10/14 04:19:53;;;;;;;11.80;5.60;;;;;;;16.18;71.72;99196.31;5034136;28;20293;-67
2023/10/14 04:22:31;;;;;;;8.57;5.50;;;;;;;16.17;71.53;99192.03;5034321;28;20210;-68
2023/10/14 04:25:18;;;;;;;9.95;5.35;;;;;;;16.15;71.76;99192.09;5033165;28;20210;-68
2023/10/14 04:30:39;;;;;;;10.48;5.00;;;;;;;16.11;71.84;99187.13;5031247;28;20231;-68
2023/10/14 04:33:18;;;;;;;8.45;4.97;;;;;;;16.09;71.67;99183.72;5032457;28;20244;-68
2023/10/14 04:35:59;;;;;;;13.95;5.72;;;;;;;16.08;71.69;99171.66;5029620;28;20221;-69
2023/10/14 04:38:37;;;;;;;11.93;5.30;;;;;;;16.06;71.81;99169.16;5033234;28;20634;-70
2023/10/14 04:41:12;;;;;;;8.25;4.75;;;;;;;16.08;71.87;99187.25;5029077;28;20206;-67
2023/10/14 04:44:00;;;;;;;9.43;4.72;;;;;;;16.08;71.65;99169.06;5034453;28;20205;-66
2023/10/14 04:46:45;;;;;;;8.48;4.80;;;;;;;16.06;71.54;99174.34;5028775;28;20638;-68
2023/10/14 04:49:17;;;;;;;9.10;4.85;;;;;;;16.05;71.66;99161.41;5034655;28;20202;-69
2023/10/14 04:51:48;;;;;;;12.80;5.68;;;;;;;16.07;71.63;99167.38;5033368;28;20577;-68
2023/10/14 04:54:19;;;;;;;12.15;5.50;;;;;;;16.06;71.55;99163.97;5035699;28;20282;-69
2023/10/14 04:56:48;;;;;;;10.77;5.10;;;;;;;16.06;71.60;99156.16;5032665;28;20238;-70
2023/10/14 04:59:24;;;;;;;6.88;5.05;;;;;;;16.05;71.82;99158.81;5031956;28;20252;-67
2023/10/14 05:01:55;;;;;;;10.77;5.30;;;;;;;16.05;71.87;99164.84;5021607;28;20281;-67
2023/10/14 05:04:30;;;;;;;9.50;4.57;;;;;;;16.04;71.84;99159.75;5027240;28;20249;-67
2023/10/14 05:07:03;;;;;;;7.65;5.10;;;;;;;16.02;71.82;99156.38;5031007;28;20233;-62
2023/10/14 05:09:39;;;;;;;13.50;5.45;;;;;;;16.02;71.65;99156.38;5032002;28;20735;-63
2023/10/14 05:12:08;;;;;;;8.68;4.85;;;;;;;16.01;71.72;99147.72;5029930;28;20214;-63
2023/10/14 05:14:37;;;;;;;8.13;4.32;;;;;;;16.01;71.52;99146.88;5031167;28;20231;-63
2023/10/14 05:17:14;;;;;;;10.20;5.07;;;;;;;16.01;71.40;99149.50;5029308;28;20202;-62
2023/10/14 05:19:43;;;;;;;9.95;5.25;;;;;;;16.03;71.29;99158.91;5037096;28;20747;-62
2023/10/14 05:22:13;;;;;;;9.90;4.40;;;;;;;16.03;70.96;99147.66;5031896;28;20206;-62
2023/10/14 05:24:48;;;;;;;10.70;4.70;;;;;;;16.04;70.85;99147.59;5032038;28;20542;-63
2023/10/14 05:27:17;;;;;;;9.40;4.60;;;;;;;16.06;70.56;99150.13;5025467;28;20666;-63
2023/10/14 05:29:50;;;;;;;10.63;5.00;;;;;;;16.07;70.25;99146.59;5028067;28;20218;-63
2023/10/14 05:32:23;;;;;;;9.73;5.25;;;;;;;16.09;70.40;99144.75;5025933;28;20230;-63
2023/10/14 05:34:53;;;;;;;10.52;4.60;;;;;;;16.09;70.33;99152.53;5033337;28;20206;-61
2023/10/14 05:37:22;;;;;;;12.00;4.72;;;;;;;16.10;70.18;99149.06;5033192;28;20199;-63
2023/10/14 05:39:54;;;;;;;12.35;4.90;;;;;;;16.10;70.01;99142.09;5029886;28;20229;-63
2023/10/14 05:42:24;;;;;;;7.22;4.63;;;;;;;16.11;69.69;99140.34;5031929;28;20213;-63
2023/10/14 05:44:57;;;;;;;9.10;4.77;;;;;;;16.12;69.64;99140.25;5029717;28;20658;-64
2023/10/14 05:47:27;;;;;;;11.32;4.70;;;;;;;16.15;69.60;99141.88;5031906;28;20203;-65
2023/10/14 05:49:55;;;;;;;11.30;5.07;;;;;;;16.17;69.33;99145.25;5031547;28;20221;-63
2023/10/14 05:52:24;;;;;;;9.75;4.90;;;;;;;16.19;68.97;99143.41;5032140;28;20203;-64
2023/10/14 05:54:53;;;;;;;11.45;4.90;;;;;;;16.20;68.82;99134.69;5030528;28;20199;-64
2023/10/14 05:57:22;;;;;;;8.73;4.30;;;;;;;16.22;68.72;99139.81;5032552;28;20231;-64
2023/10/14 05:59:50;;;;;;;10.50;5.25;;;;;;;16.25;68.31;99135.31;5032420;28;20206;-63
2023/10/14 06:02:20;;;;;;;11.63;5.45;;;;;;;16.30;67.75;99140.28;5026963;28;20261;-64
2023/10/14 06:04:50;;;;;;;5.50;4.55;;;;;;;16.34;67.41;99141.81;5022223;28;20649;-63
2023/10/14 06:07:19;;;;;;;10.15;4.70;;;;;;;16.39;67.10;99127.66;5029067;28;20215;-64
2023/10/14 06:09:47;;;;;;;9.27;4.35;;;;;;;16.45;66.74;99133.47;5032781;28;20210;-65
2023/10/14 06:12:16;;;;;;;11.20;4.43;;;;;;;16.53;66.14;99139.13;5030067;28;20214;-63
2023/10/14 06:14:46;;;;;;;8.45;4.40;;;;;;;16.60;65.58;99130.09;5033610;28;20214;-62
2023/10/14 06:17:15;;;;;;;9.95;4.22;;;;;;;16.71;65.07;99143.38;5024914;28;20293;-61
2023/10/14 06:19:45;;;;;;;9.93;4.55;;;;;;;16.80;64.65;99137.75;5031737;28;20302;-63
2023/10/14 06:22:13;;;;;;;10.40;4.65;;;;;;;16.98;63.96;99140.34;5026252;28;20692;-61
2023/10/14 06:24:43;;;;;;;7.75;3.83;;;;;;;17.17;62.94;99137.59;5032032;28;20198;-61
2023/10/14 06:27:20;;;;;;;11.68;4.57;;;;;;;17.35;62.07;99142.66;5031238;28;20205;-62
2023/10/14 06:29:50;;;;;;;10.63;4.57;;;;;;;17.56;60.97;99131.97;5030955;28;20297;-62
2023/10/14 06:32:19;;;;;;;10.05;4.07;;;;;;;17.74;60.49;99128.34;5032225;28;20225;-62
2023/10/14 06:34:58;;;;;;;9.15;4.88;;;;;;;17.94;59.75;99135.13;5032203;28;20390;-62
2023/10/14 06:37:27;;;;;;;7.13;4.20;;;;;;;18.10;58.29;99135.06;5024797;28;20203;-63
2023/10/14 06:39:56;;;;;;;10.52;4.18;;;;;;;18.23;58.20;99132.63;5032499;28;20202;-62
2023/10/14 06:42:26;;;;;;;9.27;4.53;;;;;;;18.32;57.61;99134.69;5024564;28;20210;-61
2023/10/14 06:44:55;;;;;;;6.57;3.80;;;;;;;18.42;57.36;99135.00;5032076;28;20199;-62
2023/10/14 06:47:23;;;;;;;8.45;4.40;;;;;;;18.53;56.88;99146.47;5030943;28;20587;-62
2023/10/14 06:49:54;;;;;;;11.38;4.57;;;;;;;18.65;56.84;99142.31;5031989;28;20207;-61
2023/10/14 06:52:22;;;;;;;14.98;4.72;;;;;;;18.75;55.93;99143.47;5028798;28;20212;-62
2023/10/14 06:54:53;;;;;;;8.48;3.95;;;;;;;18.87;55.71;99141.91;5031869;28;20237;-62
2023/10/14 06:57:22;;;;;;;8.18;3.80;;;;;;;18.94;55.29;99144.97;5030544;28;20237;-62
2023/10/14 06:59:51;;;;;;;6.90;4.32;;;;;;;18.99;55.20;99125.47;5028267;28;20207;-63
2023/10/14 07:02:21;;;;;;;7.10;4.25;;;;;;;19.00;55.18;99121.97;5027164;28;20209;-61
2023/10/14 07:04:50;;;;;;;8.70;3.85;;;;;;;18.98;54.92;99128.19;5027193;28;20241;-62
2023/10/14 07:07:20;;;;;;;11.98;4.38;;;;;;;18.90;55.19;99128.66;5030614;28;20198;-63
2023/10/14 07:09:48;;;;;;;8.07;4.30;;;;;;;18.82;55.69;99125.69;5029538;28;20213;-62
2023/10/14 07:12:18;;;;;;;9.57;4.78;;;;;;;18.74;56.06;99120.06;5032037;28;20198;-63
2023/10/14 07:14:46;;;;;;;5.05;3.70;;;;;;;18.71;55.94;99120.28;5028918;28;20218;-62
2023/10/14 07:17:17;;;;;;;8.27;4.10;;;;;;;18.67;56.02;99101.31;5030144;28;20890;-64
2023/10/14 07:19:47;;;;;;;12.80;5.03;;;;;;;18.68;56.11;99116.03;5031192;28;20233;-67
2023/10/14 07:22:20;;;;;;;8.82;4.60;;;;;;;18.69;56.18;99111.66;5030160;28;20198;-64
2023/10/14 07:24:52;;;;;;;8.52;4.20;;;;;;;18.70;56.21;99115.94;5031515;28;20598;-60
2023/10/14 07:27:20;;;;;;;10.32;4.30;;;;;;;18.74;56.02;99113.09;5031098;28;20209;-63
2023/10/14 07:29:49;;;;;;;13.50;4.82;;;;;;;18.76;55.96;99119.03;5030987;28;20232;-58
2023/10/14 07:32:19;;;;;;;11.10;5.00;;;;;;;18.85;56.11;99111.59;5030332;28;20305;-61
2023/10/14 07:34:51;;;;;;;9.45;4.20;;;;;;;19.10;55.77;99122.22;5027109;28;20273;-62
2023/10/14 07:37:20;;;;;;;10.57;4.07;;;;;;;19.90;53.27;99107.59;5031072;28;20205;-61
2023/10/14 07:39:52;;;;;;;10.18;4.50;;;;;;;21.21;50.38;99097.03;5031272;28;20233;-61
2023/10/14 07:42:22;;;;;;;8.52;4.57;;;;;;;22.77;46.85;99090.78;5029861;28;20372;-62
2023/10/14 07:44:52;;;;;;;9.00;4.43;;;;;;;24.09;43.29;99085.56;5035364;28;20658;-63
2023/10/14 07:47:21;;;;;;;8.07;4.43;;;;;;;25.12;40.13;99090.06;5028337;28;20293;-61
2023/10/14 07:49:50;;;;;;;11.68;4.70;;;;;;;25.63;38.63;99079.34;5030809;28;20203;-64
2023/10/14 07:52:20;;;;;;;8.55;4.68;;;;;;;25.25;38.33;99080.09;5029717;28;20234;-59
2023/10/14 07:54:51;;;;;;;8.85;4.60;;;;;;;24.20;40.73;99082.03;5029786;28;20253;-58
2023/10/14 07:57:19;;;;;;;11.60;5.07;;;;;;;23.28;42.55;99084.25;5030360;28;20241;-61
2023/10/14 07:59:54;;;;;;;11.27;4.80;;;;;;;22.43;44.67;99088.13;5029869;28;20202;-61
2023/10/14 08:02:25;;;;;;;6.65;4.13;;;;;;;21.80;46.64;99093.69;5026497;28;20583;-61
2023/10/14 08:04:55;;;;;;;8.02;4.35;;;;;;;21.30;47.96;99090.31;5026718;28;20195;-64
2023/10/14 08:07:23;;;;;;;7.65;4.70;;;;;;;20.97;48.89;99081.25;5022955;28;20208;-62
2023/10/14 08:09:54;;;;;;;6.50;3.92;;;;;;;20.78;49.64;99083.47;5028470;28;20199;-62
2023/10/14 08:12:22;;;;;;;8.82;4.97;;;;;;;20.63;50.29;99080.97;5025713;28;20226;-62
2023/10/14 08:14:53;;;;;;;8.27;4.47;;;;;;;20.56;50.64;99074.47;5027631;28;20677;-58
2023/10/14 08:17:23;;;;;;;7.82;4.50;;;;;;;20.51;50.83;99076.59;5029752;28;20629;-60
2023/10/14 08:19:52;;;;;;;9.18;5.13;;;;;;;20.50;50.80;99069.66;5030002;28;20202;-61
2023/10/14 08:22:20;;;;;;;9.57;4.95;;;;;;;20.55;51.03;99078.03;5029728;28;20207;-60
2023/10/14 08:24:52;;;;;;;11.18;5.00;;;;;;;20.59;50.56;99076.88;5029886;28;20214;-60
2023/10/14 08:27:22;;;;;;;9.43;5.03;;;;;;;20.66;50.57;99074.69;5029648;28;20542;-62
2023/10/14 08:29:53;;;;;;;9.07;4.72;;;;;;;20.71;50.46;99072.59;5027561;28;20291;-65
2023/10/14 08:32:23;;;;;;;12.23;5.22;;;;;;;20.71;50.34;99075.22;5029454;28;20199;-61
2023/10/14 08:34:51;;;;;;;11.10;4.75;;;;;;;20.71;49.78;99070.81;5032440;28;20242;-63
2023/10/14 08:37:20;;;;;;;10.95;5.07;;;;;;;20.73;49.95;99068.94;5022367;28;20198;-71
2023/10/14 08:39:48;;;;;;;13.73;5.10;;;;;;;20.75;49.20;99074.88;5030962;28;20207;-74
2023/10/14 08:42:16;;;;;;;8.55;4.60;;;;;;;20.79;49.45;99077.28;5031842;28;20206;-75
2023/10/14 08:44:47;;;;;;;11.75;5.18;;;;;;;20.89;49.61;99066.06;5020769;28;20302;-75
2023/10/14 08:47:17;;;;;;;13.88;5.15;;;;;;;21.11;48.61;99075.88;5026299;28;20635;-61
2023/10/14 08:49:46;;;;;;;10.75;5.43;;;;;;;21.30;48.80;99074.59;5030905;28;20293;-63
2023/10/14 08:52:16;;;;;;;8.63;4.35;;;;;;;21.45;48.19;99076.13;5030216;28;20253;-66
2023/10/14 08:54:46;;;;;;;9.98;4.95;;;;;;;21.48;48.06;99067.22;5030896;28;20673;-65
2023/10/14 08:57:15;;;;;;;13.52;5.93;;;;;;;21.54;48.08;99069.38;5033024;28;20245;-67
2023/10/14 08:59:44;;;;;;;7.38;4.63;;;;;;;21.60;47.87;99079.44;5031599;28;20233;-66
2023/10/14 09:02:13;;;;;;;9.00;5.05;;;;;;;21.62;47.98;99081.00;5031749;28;20604;-69
2023/10/14 09:04:42;;;;;;;11.82;5.07;;;;;;;21.67;48.32;99086.75;5033820;28;20688;-67
2023/10/14 09:07:14;;;;;;;8.40;5.05;;;;;;;21.71;47.89;99092.59;5031704;28;20202;-65
2023/10/14 09:09:43;;;;;;;7.80;5.22;;;;;;;21.75;48.16;99098.47;5033899;28;20261;-73
2023/10/14 09:12:13;;;;;;;11.40;5.25;;;;;;;21.73;47.69;99092.50;5030965;28;20659;-68
2023/10/14 09:14:42;;;;;;;10.93;5.22;;;;;;;21.74;48.32;99084.50;5033851;28;20225;-71
2023/10/14 09:17:11;;;;;;;9.55;4.90;;;;;;;21.83;48.06;99093.47;5032554;28;20557;-70
2023/10/14 09:19:46;;;;;;;11.13;5.30;;;;;;;21.85;47.99;99087.19;5024898;28;20213;-71
2023/10/14 09:22:22;;;;;;;7.80;5.03;;;;;;;21.86;48.05;99114.25;5029001;28;20285;-68
2023/10/14 09:24:51;;;;;;;9.27;5.35;;;;;;;21.84;48.27;99092.56;5032509;28;20207;-67
2023/10/14 09:27:19;;;;;;;11.52;5.50;;;;;;;21.78;48.72;99101.69;5031973;28;20211;-70
2023/10/14 09:29:48;;;;;;;13.57;5.47;;;;;;;21.70;49.07;99106.66;5031642;28;20302;-70
2023/10/14 09:32:17;;;;;;;10.27;5.03;;;;;;;21.66;49.33;99106.03;5032690;28;20225;-68
2023/10/14 09:34:47;;;;;;;6.82;5.10;;;;;;;21.54;49.55;99106.94;5032922;28;20234;-71
2023/10/14 09:37:17;;;;;;;8.15;5.72;;;;;;;21.43;49.89;99107.72;5038274;28;20234;-69
2023/10/14 09:39:49;;;;;;;10.27;5.40;;;;;;;21.35;50.54;99119.66;5034837;28;20280;-67
2023/10/14 09:42:20;;;;;;;8.65;4.95;;;;;;;21.24;50.65;99112.53;5029274;28;20831;-69
2023/10/14 09:44:51;;;;;;;10.02;5.47;;;;;;;21.18;51.18;99094.63;5034184;28;20230;-64
2023/10/14 09:47:22;;;;;;;10.70;5.53;;;;;;;21.11;51.18;99104.69;5032269;28;20214;-63
2023/10/14 09:49:53;;;;;;;11.90;6.28;;;;;;;21.08;51.47;99107.53;5032662;28;20257;-63
2023/10/14 09:52:22;;;;;;;9.13;5.50;;;;;;;21.06;51.32;99112.06;5032913;28;20203;-64
2023/10/14 09:54:52;;;;;;;11.00;5.40;;;;;;;21.02;51.27;99105.34;5032012;28;20225;-64
2023/10/14 09:57:22;;;;;;;12.88;5.85;;;;;;;21.01;50.91;99106.28;5030870;28;20608;-63
2023/10/14 09:59:53;;;;;;;10.60;5.70;;;;;;;20.96;51.21;99106.63;5030370;28;20207;-63
2023/10/14 10:02:22;;;;;;;8.63;5.22;;;;;;;20.96;51.34;99084.81;5028120;28;20210;-64
2023/10/14 10:04:54;;;;;;;7.90;5.50;;;;;;;20.93;51.16;99098.13;5029068;28;20194;-65
2023/10/14 10:07:46;;;;;;;9.85;5.95;;;;;;;20.87;51.27;99109.84;5026581;28;20573;-65
2023/10/14 10:10:18;;;;;;;11.27;5.65;;;;;;;20.87;51.96;99088.91;5027692;28;20724;-64
2023/10/14 10:12:53;;;;;;;9.70;5.25;;;;;;;20.88;51.75;99081.91;5029552;28;20209;-65
2023/10/14 10:15:23;;;;;;;6.50;4.72;;;;;;;20.88;51.86;99081.91;5030993;28;20225;-65
2023/10/14 10:17:57;;;;;;;10.65;5.35;;;;;;;20.90;51.93;99077.38;5032425;28;20282;-65
2023/10/14 10:20:35;;;;;;;9.57;5.63;;;;;;;20.94;51.73;99084.09;5032049;28;20609;-64
2023/10/14 10:23:07;;;;;;;11.50;6.05;;;;;;;20.96;51.78;99088.28;5036734;28;20201;-67
2023/10/14 10:25:51;;;;;;;8.48;5.20;;;;;;;20.98;51.82;99096.84;5033903;28;20218;-66
2023/10/14 10:28:39;;;;;;;10.60;5.22;;;;;;;21.00;50.87;99094.13;5031874;28;20252;-64
2023/10/14 10:31:09;;;;;;;9.38;5.13;;;;;;;20.99;50.91;99082.00;5025536;28;20309;-64
2023/10/14 10:33:53;;;;;;;9.25;4.70;;;;;;;20.99;50.82;99071.53;5029340;28;20286;-65
2023/10/14 10:36:25;;;;;;;8.50;4.80;;;;;;;20.98;50.77;99069.81;5029468;28;20261;-64
2023/10/14 10:38:54;;;;;;;5.95;4.40;;;;;;;20.98;50.52;99082.91;5032016;28;20211;-65
2023/10/14 10:41:26;;;;;;;8.48;4.85;;;;;;;20.97;50.37;99070.78;5041130;28;20253;-65
2023/10/14 10:44:02;;;;;;;9.65;4.72;;;;;;;20.96;50.16;99077.81;5031945;28;20218;-66
2023/10/14 10:46:31;;;;;;;9.15;4.97;;;;;;;20.95;50.26;99086.63;5031894;28;20205;-63
2023/10/14 10:48:59;;;;;;;8.82;4.53;;;;;;;20.98;50.21;99070.66;5030033;28;20233;-64
2023/10/14 10:51:33;;;;;;;10.70;5.25;;;;;;;20.98;50.24;99068.03;5027804;28;20722;-65
2023/10/14 10:54:02;;;;;;;12.07;4.97;;;;;;;21.04;50.03;99079.03;5035386;28;20214;-66
2023/10/14 10:56:32;;;;;;;12.25;4.95;;;;;;;21.05;49.90;99076.31;5031327;28;20245;-68
2023/10/14 10:59:04;;;;;;;10.02;5.07;;;;;;;21.06;50.18;99083.25;5033193;28;20615;-67
2023/10/14 11:01:33;;;;;;;9.48;4.38;;;;;;;21.04;50.50;99073.81;5028963;28;20199;-67
2023/10/14 11:04:03;;;;;;;9.77;4.40;;;;;;;21.03;50.10;99070.34;5031263;28;20283;-67
2023/10/14 11:06:32;;;;;;;7.10;3.83;;;;;;;21.02;49.96;99063.41;5031751;28;20649;-66
2023/10/14 11:09:00;;;;;;;6.85;4.50;;;;;;;21.03;50.11;99072.16;5031307;28;20269;-66
2023/10/14 11:11:31;;;;;;;7.45;4.28;;;;;;;21.06;50.56;99070.16;5031466;28;20253;-67
2023/10/14 11:14:00;;;;;;;9.07;4.75;;;;;;;21.07;50.13;99074.44;5030355;28;20203;-67
2023/10/14 11:16:29;;;;;;;9.73;4.82;;;;;;;21.07;49.73;99069.19;5027820;28;20215;-67
2023/10/14 11:18:59;;;;;;;9.10;4.63;;;;;;;21.08;50.63;99083.13;5028368;28;20206;-68
2023/10/14 11:21:28;;;;;;;9.20;4.45;;;;;;;21.06;50.47;99082.38;5036617;28;20198;-67
2023/10/14 11:23:58;;;;;;;11.02;4.75;;;;;;;21.05;50.76;99083.34;5031890;28;20320;-67
2023/10/14 11:26:26;;;;;;;8.05;4.57;;;;;;;21.01;50.23;99084.50;5029480;28;20293;-67
2023/10/14 11:28:54;;;;;;;6.22;4.38;;;;;;;21.00;50.45;99094.13;5029019;28;20212;-66
2023/10/14 11:31:25;;;;;;;6.90;4.35;;;;;;;20.99;50.63;99095.94;5030584;28;20336;-66
2023/10/14 11:33:55;;;;;;;6.05;4.22;;;;;;;20.99;50.33;99089.84;5030538;28;20260;-67
2023/10/14 11:36:27;;;;;;;9.00;4.55;;;;;;;21.00;50.90;99094.13;5029309;28;20214;-66
2023/10/14 11:38:58;;;;;;;11.27;4.88;;;;;;;21.01;51.14;99090.56;5028483;28;20670;-66
2023/10/14 11:41:30;;;;;;;7.45;3.90;;;;;;;21.03;50.29;99098.34;5031331;28;20309;-67
2023/10/14 11:43:58;;;;;;;10.38;4.63;;;;;;;20.99;50.84;99106.41;5028554;28;20226;-66
2023/10/14 11:46:28;;;;;;;8.82;3.83;;;;;;;21.01;50.31;99092.34;5030822;28;20210;-66
2023/10/14 11:48:56;;;;;;;9.50;4.88;;;;;;;20.96;50.67;99109.22;5033594;28;20249;-68
2023/10/14 11:51:25;;;;;;;6.70;4.07;;;;;;;20.93;50.58;99093.72;5030469;28;20617;-68
2023/10/14 11:53:53;;;;;;;9.02;4.80;;;;;;;20.86;50.93;99087.25;5030962;28;20245;-66